createdAt,value
2022-08-12T00:01:04.827Z,18.43
2022-08-12T00:03:50.966Z,18.27
2022-08-12T00:06:39.524Z,18.01
2022-08-12T00:09:26.516Z,18.41
2022-08-12T00:12:13.459Z,18.62
2022-08-12T00:15:01.105Z,17.99
2022-08-12T00:17:47.231Z,18.95
2022-08-12T00:20:33.164Z,19.11
2022-08-12T00:23:18.687Z,18.92
2022-08-12T00:26:23.063Z,18.85
2022-08-12T00:29:13.588Z,20.63
2022-08-12T00:32:00.988Z,20.01
2022-08-12T00:34:49.280Z,18.83
2022-08-12T00:37:36.189Z,19.14
2022-08-12T00:40:28.545Z,20.06
2022-08-12T00:42:57.102Z,19.83
2022-08-12T00:45:24.971Z,19.27
2022-08-12T00:47:53.588Z,19.34
2022-08-12T00:50:22.723Z,19.46
2022-08-12T00:52:52.615Z,20.76
2022-08-12T00:55:20.513Z,19.46
2022-08-12T00:57:50.125Z,19.49
2022-08-12T01:00:21.534Z,19.69
2022-08-12T01:02:57.578Z,19.45
2022-08-12T01:05:44.709Z,19.30
2022-08-12T01:08:30.383Z,19.48
2022-08-12T01:11:16.258Z,18.92
2022-08-12T01:13:50.274Z,18.87
2022-08-12T01:16:22.692Z,19.47
2022-08-12T01:18:52.685Z,19.22
2022-08-12T01:21:56.864Z,20.17
2022-08-12T01:24:31.386Z,19.21
2022-08-12T01:27:01.424Z,19.22
2022-08-12T01:29:33.055Z,19.36
2022-08-12T01:32:06.322Z,19.16
2022-08-12T01:34:39.531Z,19.25
2022-08-12T01:37:09.064Z,18.77
2022-08-12T01:40:31.623Z,19.45
2022-08-12T01:42:42.143Z,19.99
2022-08-12T01:45:10.236Z,19.97
2022-08-12T01:47:45.658Z,20.41
2022-08-12T01:50:55.127Z,20.08
2022-08-12T01:53:50.374Z,19.47
2022-08-12T01:56:22.120Z,19.76
2022-08-12T01:59:13.429Z,19.29
2022-08-12T02:01:41.713Z,20.93
2022-08-12T02:05:04.761Z,20.98
2022-08-12T02:08:09.317Z,20.54
2022-08-12T02:11:29.465Z,20.30
2022-08-12T02:14:00.346Z,20.30
2022-08-12T02:16:38.770Z,20.31
2022-08-12T02:19:49.896Z,20.45
2022-08-12T02:22:22.363Z,21.80
2022-08-12T02:24:50.959Z,21.86
2022-08-12T02:27:19.906Z,20.01
2022-08-12T02:29:48.455Z,19.86
2022-08-12T02:32:16.150Z,19.28
2022-08-12T02:34:44.679Z,20.11
2022-08-12T02:37:15.666Z,20.81
2022-08-12T02:39:49.830Z,19.83
2022-08-12T02:42:20.689Z,20.84
2022-08-12T02:44:51.568Z,20.11
2022-08-12T02:47:59.319Z,20.71
2022-08-12T02:50:10.953Z,21.10
2022-08-12T02:52:39.013Z,20.27
2022-08-12T02:55:28.733Z,20.70
2022-08-12T02:58:07.081Z,21.89
2022-08-12T03:00:37.925Z,20.57
2022-08-12T03:03:10.314Z,20.53
2022-08-12T03:05:45.778Z,19.82
2022-08-12T03:08:32.201Z,20.47
2022-08-12T03:11:14.410Z,20.05
2022-08-12T03:13:46.943Z,20.63
2022-08-12T03:16:14.881Z,21.04
2022-08-12T03:18:46.284Z,20.44
2022-08-12T03:21:17.109Z,20.36
2022-08-12T03:23:46.112Z,20.56
2022-08-12T03:26:14.881Z,21.48
2022-08-12T03:28:52.046Z,21.25
2022-08-12T03:31:21.896Z,19.91
2022-08-12T03:34:00.707Z,20.04
2022-08-12T03:36:35.512Z,21.98
2022-08-12T03:39:18.905Z,20.15
2022-08-12T03:41:52.037Z,21.92
2022-08-12T03:44:53.751Z,22.09
2022-08-12T03:47:53.825Z,21.51
2022-08-12T03:50:39.810Z,20.83
2022-08-12T03:53:29.025Z,20.01
2022-08-12T03:56:15.163Z,20.22
2022-08-12T03:59:00.942Z,20.73
2022-08-12T04:01:27.971Z,19.72
2022-08-12T04:03:55.436Z,20.36
2022-08-12T04:06:34.527Z,20.77
2022-08-12T04:09:16.267Z,20.25
2022-08-12T04:12:03.420Z,21.49
2022-08-12T04:14:31.385Z,19.85
2022-08-12T04:16:58.563Z,21.42
2022-08-12T04:19:26.596Z,20.03
2022-08-12T04:22:02.429Z,21.19
2022-08-12T04:24:35.488Z,20.38
2022-08-12T04:27:05.783Z,20.61
2022-08-12T04:30:29.374Z,20.56
2022-08-12T04:32:21.443Z,20.21
2022-08-12T04:34:48.491Z,20.38
2022-08-12T04:37:16.687Z,20.46
2022-08-12T04:39:46.042Z,21.59
2022-08-12T04:42:13.411Z,22.17
2022-08-12T04:44:40.292Z,22.88
2022-08-12T04:47:11.787Z,22.64
2022-08-12T04:49:40.981Z,21.78
2022-08-12T04:52:08.284Z,20.19
2022-08-12T04:54:35.931Z,20.19
2022-08-12T04:57:04.351Z,20.61
2022-08-12T04:59:43.705Z,22.44
2022-08-12T05:02:21.302Z,20.82
2022-08-12T05:04:58.849Z,21.62
2022-08-12T05:07:28.072Z,20.56
2022-08-12T05:10:01.031Z,19.96
2022-08-12T05:12:38.645Z,21.10
2022-08-12T05:15:19.563Z,22.26
2022-08-12T05:17:55.627Z,20.70
2022-08-12T05:20:23.116Z,19.57
2022-08-12T05:22:56.937Z,19.06
2022-08-12T05:25:25.182Z,19.83
2022-08-12T05:27:58.630Z,20.90
2022-08-12T05:30:27.955Z,20.06
2022-08-12T05:32:59.856Z,20.92
2022-08-12T05:35:27.081Z,20.79
2022-08-12T05:38:13.886Z,19.21
2022-08-12T05:40:42.079Z,19.20
2022-08-12T05:43:09.210Z,21.09
2022-08-12T05:45:38.341Z,21.43
2022-08-12T05:48:08.756Z,19.40
2022-08-12T05:50:36.348Z,19.93
2022-08-12T05:53:04.044Z,20.19
2022-08-12T05:55:31.799Z,20.12
2022-08-12T05:57:59.575Z,20.37
2022-08-12T06:00:26.919Z,20.30
2022-08-12T06:03:01.390Z,19.29
2022-08-12T06:05:51.872Z,20.37
2022-08-12T06:08:21.494Z,18.84
2022-08-12T06:10:50.495Z,19.66
2022-08-12T06:13:28.542Z,20.06
2022-08-12T06:16:07.533Z,19.42
2022-08-12T06:18:34.993Z,21.15
2022-08-12T06:21:02.557Z,19.44
2022-08-12T06:23:30.319Z,20.23
2022-08-12T06:25:57.992Z,18.53
2022-08-12T06:28:25.624Z,20.88
2022-08-12T06:31:22.223Z,19.55
2022-08-12T06:34:00.206Z,18.13
2022-08-12T06:36:32.618Z,18.40
2022-08-12T06:39:01.599Z,17.10
2022-08-12T06:42:02.482Z,16.96
2022-08-12T06:44:34.440Z,16.45
2022-08-12T06:47:01.443Z,18.08
2022-08-12T06:49:33.562Z,20.12
2022-08-12T06:52:00.488Z,18.86
2022-08-12T06:54:31.880Z,18.13
2022-08-12T06:57:04.889Z,16.63
2022-08-12T06:59:51.181Z,17.21
2022-08-12T07:02:22.662Z,17.16
2022-08-12T07:04:49.932Z,18.00
2022-08-12T07:07:16.848Z,16.89
2022-08-12T07:10:00.110Z,16.11
2022-08-12T07:12:32.271Z,17.91
2022-08-12T07:15:02.436Z,17.04
2022-08-12T07:17:37.446Z,17.38
2022-08-12T07:20:29.539Z,16.42
2022-08-12T07:22:57.881Z,18.46
2022-08-12T07:25:41.093Z,16.49
2022-08-12T07:28:23.657Z,17.43
2022-08-12T07:30:52.287Z,15.91
2022-08-12T07:33:28.273Z,16.00
2022-08-12T07:35:57.361Z,18.08
2022-08-12T07:38:28.954Z,16.78
2022-08-12T07:41:08.384Z,16.92
2022-08-12T07:43:54.549Z,16.68
2022-08-12T07:46:26.002Z,15.86
2022-08-12T07:48:55.176Z,15.86
2022-08-12T07:51:25.522Z,15.91
2022-08-12T07:54:00.250Z,14.90
2022-08-12T07:56:29.252Z,17.43
2022-08-12T07:58:59.513Z,17.40
2022-08-12T08:01:27.135Z,17.14
2022-08-12T08:04:18.507Z,16.97
2022-08-12T08:06:46.402Z,16.85
2022-08-12T08:09:15.155Z,17.00
2022-08-12T08:12:00.791Z,16.37
2022-08-12T08:14:32.979Z,18.45
2022-08-12T08:17:03.792Z,17.71
2022-08-12T08:19:32.548Z,14.75
2022-08-12T08:22:00.184Z,15.26
2022-08-12T08:24:29.127Z,15.90
2022-08-12T08:26:59.285Z,16.64
2022-08-12T08:29:26.884Z,15.42
2022-08-12T08:32:01.575Z,17.07
2022-08-12T08:34:54.191Z,15.74
2022-08-12T08:37:20.760Z,14.89
2022-08-12T08:39:47.850Z,18.17
2022-08-12T08:42:33.349Z,15.70
2022-08-12T08:45:01.417Z,16.63
2022-08-12T08:47:28.279Z,15.01
2022-08-12T08:50:01.176Z,13.48
2022-08-12T08:52:46.453Z,14.60
2022-08-12T08:55:16.451Z,16.12
2022-08-12T08:57:51.237Z,14.59
2022-08-12T09:00:20.257Z,15.85
2022-08-12T09:02:59.058Z,14.76
2022-08-12T09:05:27.932Z,17.35
2022-08-12T09:08:09.092Z,16.15
2022-08-12T09:10:45.751Z,17.20
2022-08-12T09:14:10.654Z,15.01
2022-08-12T09:16:20.060Z,16.97
2022-08-12T09:18:52.162Z,17.74
2022-08-12T09:21:20.774Z,17.06
2022-08-12T09:23:59.027Z,16.04
2022-08-12T09:26:29.601Z,15.22
2022-08-12T09:29:00.517Z,15.80
2022-08-12T09:32:03.131Z,14.89
2022-08-12T09:34:25.500Z,15.54
2022-08-12T09:37:02.980Z,14.86
2022-08-12T09:40:01.469Z,15.93
2022-08-12T09:43:11.026Z,14.69
2022-08-12T09:46:06.194Z,16.99
2022-08-12T09:48:35.215Z,15.00
2022-08-12T09:51:16.660Z,16.12
2022-08-12T09:54:05.412Z,15.93
2022-08-12T09:56:59.842Z,15.68
2022-08-12T10:00:16.904Z,16.81
2022-08-12T10:02:45.121Z,17.51
2022-08-12T10:04:57.991Z,15.75
2022-08-12T10:07:25.398Z,14.45
2022-08-12T10:09:58.259Z,15.05
2022-08-12T10:13:07.758Z,17.08
2022-08-12T10:16:01.541Z,16.17
2022-08-12T10:18:19.730Z,16.07
2022-08-12T10:20:46.857Z,16.37
2022-08-12T10:23:13.679Z,15.14
2022-08-12T10:26:36.646Z,15.44
2022-08-12T10:30:01.772Z,14.75
2022-08-12T10:32:20.792Z,14.57
2022-08-12T10:34:40.428Z,16.26
2022-08-12T10:38:07.393Z,15.11
2022-08-12T10:40:11.387Z,14.29
2022-08-12T10:43:00.681Z,14.82
2022-08-12T10:45:30.314Z,13.30
2022-08-12T10:48:20.456Z,14.13
2022-08-12T10:51:02.435Z,13.24
2022-08-12T10:53:45.019Z,13.91
2022-08-12T10:56:18.081Z,14.49
2022-08-12T10:58:47.077Z,14.94
2022-08-12T11:01:49.599Z,14.16
2022-08-12T11:04:27.160Z,15.05
2022-08-12T11:07:07.263Z,13.91
2022-08-12T11:09:55.741Z,14.43
2022-08-12T11:12:55.208Z,13.33
2022-08-12T11:15:21.264Z,12.72
2022-08-12T11:18:03.095Z,14.21
2022-08-12T11:20:31.072Z,14.29
2022-08-12T11:23:25.514Z,13.53
2022-08-12T11:25:57.628Z,13.43
2022-08-12T11:28:34.140Z,13.77
2022-08-12T11:31:03.549Z,15.19
2022-08-12T11:34:05.009Z,15.47
2022-08-12T11:36:22.023Z,14.32
2022-08-12T11:38:51.189Z,13.04
2022-08-12T11:41:31.304Z,11.82
2022-08-12T11:44:35.322Z,12.80
2022-08-12T11:46:54.743Z,13.16
2022-08-12T11:49:31.646Z,12.81
2022-08-12T11:52:03.747Z,13.25
2022-08-12T11:54:31.672Z,14.54
2022-08-12T11:57:02.099Z,13.89
2022-08-12T12:02:21.027Z,12.32
2022-08-12T12:04:52.562Z,14.31
2022-08-12T12:07:33.748Z,13.55
2022-08-12T12:10:11.225Z,13.13
2022-08-12T12:12:38.392Z,14.78
2022-08-12T12:15:09.680Z,13.21
2022-08-12T12:17:38.972Z,12.00
2022-08-12T12:20:09.556Z,11.92
2022-08-12T12:22:41.386Z,11.30
2022-08-12T12:25:13.052Z,12.05
2022-08-12T12:28:05.957Z,11.66
2022-08-12T12:30:36.496Z,10.70
2022-08-12T12:33:05.451Z,11.18
2022-08-12T12:36:18.136Z,13.23
2022-08-12T12:38:21.035Z,11.80
2022-08-12T12:40:52.593Z,13.43
2022-08-12T12:43:28.756Z,12.57
2022-08-12T12:46:07.050Z,12.70
2022-08-12T12:48:36.169Z,12.17
2022-08-12T12:51:48.385Z,12.81
2022-08-12T12:54:08.432Z,14.42
2022-08-12T12:56:42.541Z,13.77
2022-08-12T12:59:33.793Z,12.82
2022-08-12T13:02:08.138Z,13.51
2022-08-12T13:04:37.201Z,13.38
2022-08-12T13:07:06.877Z,11.82
2022-08-12T13:09:36.360Z,13.53
2022-08-12T13:12:10.439Z,11.23
2022-08-12T13:14:39.835Z,12.38
2022-08-12T13:17:09.747Z,13.86
2022-08-12T13:19:46.872Z,12.90
2022-08-12T13:22:20.527Z,13.57
2022-08-12T13:24:52.181Z,13.18
2022-08-12T13:27:22.676Z,12.12
2022-08-12T13:30:03.694Z,12.81
2022-08-12T13:32:31.823Z,11.98
2022-08-12T13:35:04.190Z,12.02
2022-08-12T13:37:56.752Z,13.30
2022-08-12T13:40:25.443Z,12.82
2022-08-12T13:42:57.869Z,14.36
2022-08-12T13:45:26.377Z,14.42
2022-08-12T13:48:04.734Z,12.49
2022-08-12T13:50:36.807Z,12.01
2022-08-12T13:53:24.911Z,12.24
2022-08-12T13:56:04.298Z,13.41
2022-08-12T13:58:34.642Z,12.68
2022-08-12T14:01:04.717Z,13.07
2022-08-12T14:03:51.065Z,13.58
2022-08-12T14:06:20.184Z,12.91
2022-08-12T14:08:50.896Z,12.23
2022-08-12T14:11:19.263Z,12.56
2022-08-12T14:14:03.427Z,12.61
2022-08-12T14:16:46.825Z,12.81
2022-08-12T14:19:22.333Z,12.24
2022-08-12T14:22:01.552Z,13.71
2022-08-12T14:24:40.845Z,13.49
2022-08-12T14:27:10.432Z,12.76
2022-08-12T14:30:06.123Z,11.93
2022-08-12T14:32:36.711Z,11.70
2022-08-12T14:35:11.084Z,12.79
2022-08-12T14:37:57.958Z,13.37
2022-08-12T14:40:30.331Z,13.29
2022-08-12T14:42:59.189Z,12.38
2022-08-12T14:45:44.448Z,13.48
2022-08-12T14:48:15.276Z,13.13
2022-08-12T14:51:09.739Z,12.17
2022-08-12T14:57:05.960Z,13.35
2022-08-12T14:59:26.982Z,13.25
2022-08-12T15:02:20.761Z,13.40
2022-08-12T15:04:56.221Z,13.69
2022-08-12T15:07:34.221Z,13.93
2022-08-12T15:10:10.874Z,13.17
2022-08-12T15:12:40.528Z,14.72
2022-08-12T15:15:10.330Z,13.98
2022-08-12T15:17:38.675Z,13.74
2022-08-12T15:20:31.134Z,14.16
2022-08-12T15:22:57.882Z,15.08
2022-08-12T15:25:25.497Z,15.64
2022-08-12T15:28:04.437Z,14.65
2022-08-12T15:30:41.045Z,12.44
2022-08-12T15:33:12.825Z,14.17
2022-08-12T15:35:52.265Z,13.71
2022-08-12T15:38:25.253Z,13.46
2022-08-12T15:40:53.536Z,13.17
2022-08-12T15:43:27.328Z,13.28
2022-08-12T15:46:15.637Z,13.74
2022-08-12T15:48:47.010Z,14.67
2022-08-12T15:51:57.250Z,14.67
2022-08-12T15:54:30.947Z,13.21
2022-08-12T15:57:07.697Z,14.56
2022-08-12T15:59:51.281Z,13.92
2022-08-12T16:02:19.874Z,14.56
2022-08-12T16:04:51.283Z,13.67
2022-08-12T16:07:29.984Z,12.39
2022-08-12T16:10:06.286Z,12.59
2022-08-12T16:12:43.302Z,14.09
2022-08-12T16:15:11.951Z,14.09
2022-08-12T16:18:19.289Z,12.07
2022-08-12T16:20:34.294Z,12.68
2022-08-12T16:23:04.746Z,13.01
2022-08-12T16:26:03.049Z,11.92
2022-08-12T16:28:32.243Z,13.55
2022-08-12T16:31:00.308Z,13.60
2022-08-12T16:33:59.391Z,12.84
2022-08-12T16:36:31.747Z,12.55
2022-08-12T16:39:01.479Z,13.34
2022-08-12T16:41:39.844Z,13.57
2022-08-12T16:44:09.019Z,14.17
2022-08-12T16:46:37.432Z,14.44
2022-08-12T16:49:08.997Z,13.41
2022-08-12T16:51:46.719Z,13.88
2022-08-12T16:54:21.912Z,13.83
2022-08-12T16:56:58.330Z,13.48
2022-08-12T16:59:53.432Z,13.80
2022-08-12T17:02:33.858Z,14.76
2022-08-12T17:05:05.128Z,14.11
2022-08-12T17:07:38.245Z,15.65
2022-08-12T17:10:13.552Z,14.98
2022-08-12T17:12:45.521Z,14.70
2022-08-12T17:15:50.112Z,15.20
2022-08-12T17:18:39.073Z,14.98
2022-08-12T17:20:56.422Z,16.33
2022-08-12T17:23:26.770Z,14.88
2022-08-12T17:26:02.399Z,16.40
2022-08-12T17:28:31.742Z,15.58
2022-08-12T17:31:01.024Z,16.00
2022-08-12T17:33:33.259Z,16.01
2022-08-12T17:36:05.777Z,15.53
2022-08-12T17:38:36.055Z,15.83
2022-08-12T17:41:22.235Z,16.25
2022-08-12T17:43:58.555Z,15.25
2022-08-12T17:46:33.259Z,15.71
2022-08-12T17:49:00.911Z,14.80
2022-08-12T17:51:50.504Z,15.14
2022-08-12T17:54:23.553Z,15.91
2022-08-12T17:56:51.300Z,15.72
2022-08-12T17:59:41.771Z,15.41
2022-08-12T18:02:08.226Z,15.61
2022-08-12T18:04:36.411Z,15.10
2022-08-12T18:07:06.288Z,15.76
2022-08-12T18:09:36.900Z,15.42
2022-08-12T18:12:26.809Z,15.10
2022-08-12T18:16:03.516Z,14.62
2022-08-12T18:18:01.790Z,15.90
2022-08-12T18:20:32.813Z,14.85
2022-08-12T18:23:04.623Z,15.18
2022-08-12T18:26:15.454Z,15.27
2022-08-12T18:28:43.237Z,15.48
2022-08-12T18:31:14.216Z,16.03
2022-08-12T18:33:46.111Z,16.24
2022-08-12T18:36:14.192Z,15.48
2022-08-12T18:38:51.351Z,15.06
2022-08-12T18:41:36.039Z,16.03
2022-08-12T18:44:08.083Z,15.21
2022-08-12T18:46:54.079Z,15.23
2022-08-12T18:49:30.603Z,16.32
2022-08-12T18:52:04.837Z,15.33
2022-08-12T18:54:36.128Z,15.96
2022-08-12T18:57:16.717Z,15.56
2022-08-12T19:00:00.683Z,15.68
2022-08-12T19:02:33.070Z,15.92
2022-08-12T19:05:09.309Z,15.70
2022-08-12T19:07:49.510Z,16.14
2022-08-12T19:10:23.130Z,15.58
2022-08-12T19:13:12.718Z,16.79
2022-08-12T19:15:45.586Z,17.05
2022-08-12T19:18:13.282Z,16.85
2022-08-12T19:20:42.058Z,16.15
2022-08-12T19:23:21.043Z,16.19
2022-08-12T19:25:59.260Z,16.64
2022-08-12T19:28:34.961Z,17.27
2022-08-12T19:31:55.516Z,17.41
2022-08-12T19:38:03.211Z,16.85
2022-08-12T19:40:31.785Z,17.29
2022-08-12T19:43:18.905Z,16.97
2022-08-12T19:45:56.546Z,16.37
2022-08-12T19:48:30.471Z,17.00
2022-08-12T19:50:59.347Z,17.70
2022-08-12T19:53:56.873Z,17.11
2022-08-12T19:56:25.188Z,17.41
2022-08-12T19:58:52.515Z,17.34
2022-08-12T20:01:21.638Z,17.79
2022-08-12T20:03:57.394Z,17.96
2022-08-12T20:06:29.259Z,17.19
2022-08-12T20:08:58.407Z,18.46
2022-08-12T20:12:09.029Z,17.90
2022-08-12T20:14:18.975Z,18.57
2022-08-12T20:16:51.609Z,19.45
2022-08-12T20:19:23.473Z,18.73
2022-08-12T20:21:50.562Z,18.26
2022-08-12T20:24:19.094Z,19.21
2022-08-12T20:26:46.514Z,18.40
2022-08-12T20:29:13.737Z,19.66
2022-08-12T20:31:41.502Z,20.27
2022-08-12T20:34:12.347Z,18.43
2022-08-12T20:36:44.971Z,18.61
2022-08-12T20:39:35.925Z,19.51
2022-08-12T20:42:07.254Z,18.78
2022-08-12T20:44:39.687Z,19.13
2022-08-12T20:47:20.263Z,18.17
2022-08-12T20:49:55.662Z,17.28
2022-08-12T20:52:30.220Z,17.34
2022-08-12T20:54:58.101Z,18.75
2022-08-12T20:57:38.131Z,18.58
2022-08-12T21:00:18.150Z,19.37
2022-08-12T21:02:50.409Z,19.72
2022-08-12T21:06:09.838Z,20.88
2022-08-12T21:08:26.666Z,21.38
2022-08-12T21:10:58.983Z,20.44
2022-08-12T21:13:27.089Z,20.46
2022-08-12T21:16:00.024Z,19.23
2022-08-12T21:18:29.071Z,19.04
2022-08-12T21:20:59.020Z,20.07
2022-08-12T21:23:30.753Z,20.54
2022-08-12T21:26:06.158Z,20.52
2022-08-12T21:28:38.500Z,19.19
2022-08-12T21:32:34.738Z,19.83
2022-08-12T21:34:07.960Z,20.56
2022-08-12T21:36:39.883Z,19.57
2022-08-12T21:39:18.934Z,18.30
2022-08-12T21:41:57.248Z,18.54
2022-08-12T21:45:48.438Z,19.32
2022-08-12T21:47:19.782Z,18.66
2022-08-12T21:49:55.745Z,19.76
2022-08-12T21:52:35.510Z,19.59
2022-08-12T21:55:18.280Z,18.63
2022-08-12T21:57:53.136Z,20.27
2022-08-12T22:00:31.943Z,21.19
2022-08-12T22:04:02.661Z,19.91
2022-08-12T22:06:31.419Z,20.21
2022-08-12T22:09:17.152Z,21.39
2022-08-12T22:11:57.006Z,20.88
2022-08-12T22:14:28.073Z,20.32
2022-08-12T22:16:56.919Z,22.10
2022-08-12T22:19:23.866Z,21.67
2022-08-12T22:21:53.758Z,19.50
2022-08-12T22:24:26.981Z,21.16
2022-08-12T22:27:17.879Z,21.63
2022-08-12T22:30:16.869Z,19.78
2022-08-12T22:32:50.134Z,19.52
2022-08-12T22:35:55.954Z,19.69
2022-08-12T22:38:24.119Z,19.21
2022-08-12T22:40:54.740Z,19.19
2022-08-12T22:43:58.965Z,20.32
2022-08-12T22:46:52.942Z,20.12
2022-08-12T22:49:36.878Z,20.06
2022-08-12T22:52:18.584Z,19.04
2022-08-12T22:55:03.802Z,20.13
2022-08-12T22:57:54.010Z,19.81
2022-08-12T23:00:24.301Z,19.44
2022-08-12T23:02:57.028Z,19.93
2022-08-12T23:05:36.872Z,20.20
2022-08-12T23:08:21.934Z,20.39
2022-08-12T23:10:49.743Z,19.63
2022-08-12T23:13:43.251Z,19.40
2022-08-12T23:16:28.387Z,19.57
2022-08-12T23:19:01.475Z,19.64
2022-08-12T23:22:06.714Z,21.87
2022-08-12T23:24:35.560Z,20.64
2022-08-12T23:27:23.691Z,20.22
2022-08-12T23:30:17.614Z,21.12
2022-08-12T23:32:38.571Z,20.96
2022-08-12T23:35:07.287Z,20.54
2022-08-12T23:37:47.841Z,20.44
2022-08-12T23:40:22.296Z,20.66
2022-08-12T23:42:51.239Z,21.35
2022-08-12T23:45:20.121Z,20.50
2022-08-12T23:48:00.202Z,21.47
2022-08-12T23:50:34.418Z,20.80
2022-08-12T23:53:06.597Z,20.01
2022-08-12T23:55:45.665Z,20.07
2022-08-12T23:58:22.877Z,20.16
